Impacts METAR Board
IDs:

KMIA - Miami Intl, FL, US

Updated at: 0100 UTC 31 May 2020
Potential Impact None Slight Moderate High
Time 30/13Z 30/14Z 30/15Z 30/16Z 30/17Z 30/18Z 30/19Z 30/20Z 30/21Z 30/22Z 30/23Z 31/00Z 31/01Z
Temp83 83 86 87 86 88 87 88 87 86 85 82 82
Dewpt72 73 70 70 71 70 72 69 69 71 70 70 71
Altim30.04 30.04 30.04 30.03 30.03 30.01 30.00 29.99 29.97 29.97 29.96 29.98 30.01
VIS10 10 10 10 10 10 10 10 10 10 10 10 10
CIG250 250 250 250 49 250 250 -- -- 250 250 250 250
CoverBKNBKNBKNBKNBKNBKNBKNSCTSCTBKNBKNBKNBKN
FltCatVFRVFRVFRVFRVFRVFRVFRVFRVFRVFRVFRVFRVFR
WX--------------------------
WDir1201201101001301401201301201409011090
WSpd8 9 8 6 10 10 10 11 11 10 10 10 11
WGst-- -- -- -- -- -- 17 -- -- -- -- -- --
Raw hourly METARs
KMIA 301253Z 12008KT 10SM SCT026 BKN250 28/22 A3004 RMK AO2 SLP172 T02830222 $
KMIA 301353Z 12009KT 10SM SCT024 BKN250 28/23 A3004 RMK AO2 SLP172 T02830228
KMIA 301453Z 11008KT 10SM SCT030 BKN250 30/21 A3004 RMK AO2 SLP172 T03000211 51004
KMIA 301553Z 10006KT 10SM SCT030 BKN250 31/21 A3003 RMK AO2 SLP169 T03060211
KMIA 301653Z COR 13010KT 10SM SCT040 BKN049 BKN250 30/22 A3003 RMK AO2 SLP168 T03000217
KMIA 301753Z 14010KT 10SM SCT038 BKN250 31/21 A3001 RMK AO2 SLP162 T03110211 10311 20278 58010
KMIA 301853Z 12010G17KT 10SM SCT038 BKN250 31/22 A3000 RMK AO2 SLP158 T03060222
KMIA 301953Z 13011KT 10SM SCT040 SCT250 31/21 A2999 RMK AO2 SLP154 T03110206
KMIA 302053Z 12011KT 10SM SCT038 SCT250 31/21 A2997 RMK AO2 SLP147 T03060206 58016
KMIA 302153Z 14010KT 10SM FEW036 FEW150 BKN250 30/22 A2997 RMK AO2 SLP148 CB DSNT N T03000217
KMIA 302253Z 09010KT 10SM FEW036 FEW110 BKN250 29/21 A2996 RMK AO2 SLP147 CB DSNT NW T02940211
KMIA 302353Z 11010KT 10SM FEW036 FEW070 FEW110 BKN250 28/21 A2998 RMK AO2 SLP153 CB DSNT NW T02780211 10317 20278 53006
KMIA 310053Z 09011KT 10SM FEW030 FEW110 BKN250 28/22 A3001 RMK AO2 SLP161 CB DSNT W-NW T02780217



Page loaded:  01:16 UTC  |   06:16 PM Pacific  |   07:16 PM Mountain  |   08:16 PM Central  |   09:16 PM Eastern

 

ADVISORIES

FORECASTS

FORECASTS

OBSERVATIONS

USER TOOLS

ABOUT US